sensor_id;sensor_type;location;lat;lon;timestamp;P1;durP1;ratioP1;P2;durP2;ratioP2
10957;SDS011;5531;42.570;23.676;2023-04-29T00:00:09;5.10;;;4.35;;
10957;SDS011;5531;42.570;23.676;2023-04-29T00:02:39;6.57;;;4.43;;
10957;SDS011;5531;42.570;23.676;2023-04-29T00:05:11;5.72;;;4.05;;
10957;SDS011;5531;42.570;23.676;2023-04-29T00:07:39;6.15;;;4.40;;
10957;SDS011;5531;42.570;23.676;2023-04-29T00:10:11;6.32;;;4.18;;
10957;SDS011;5531;42.570;23.676;2023-04-29T00:12:41;5.45;;;4.22;;
10957;SDS011;5531;42.570;23.676;2023-04-29T00:15:10;6.40;;;5.25;;
10957;SDS011;5531;42.570;23.676;2023-04-29T00:17:39;5.88;;;4.55;;
10957;SDS011;5531;42.570;23.676;2023-04-29T00:20:10;7.55;;;4.82;;
10957;SDS011;5531;42.570;23.676;2023-04-29T00:22:39;4.78;;;4.32;;
10957;SDS011;5531;42.570;23.676;2023-04-29T00:25:11;7.43;;;4.65;;
10957;SDS011;5531;42.570;23.676;2023-04-29T00:27:41;6.18;;;4.60;;
10957;SDS011;5531;42.570;23.676;2023-04-29T00:30:10;5.55;;;4.85;;
10957;SDS011;5531;42.570;23.676;2023-04-29T00:32:39;6.13;;;4.03;;
10957;SDS011;5531;42.570;23.676;2023-04-29T00:35:08;4.10;;;3.70;;
10957;SDS011;5531;42.570;23.676;2023-04-29T00:37:37;5.20;;;3.42;;
10957;SDS011;5531;42.570;23.676;2023-04-29T00:40:07;4.80;;;3.88;;
10957;SDS011;5531;42.570;23.676;2023-04-29T00:42:40;5.50;;;4.00;;
10957;SDS011;5531;42.570;23.676;2023-04-29T00:45:10;6.63;;;3.92;;
10957;SDS011;5531;42.570;23.676;2023-04-29T00:47:39;7.78;;;3.95;;
10957;SDS011;5531;42.570;23.676;2023-04-29T00:50:08;3.88;;;3.47;;
10957;SDS011;5531;42.570;23.676;2023-04-29T00:52:37;5.15;;;3.80;;
10957;SDS011;5531;42.570;23.676;2023-04-29T00:55:07;4.60;;;3.70;;
10957;SDS011;5531;42.570;23.676;2023-04-29T00:57:40;4.72;;;3.60;;
10957;SDS011;5531;42.570;23.676;2023-04-29T01:00:12;4.10;;;3.70;;
10957;SDS011;5531;42.570;23.676;2023-04-29T01:02:41;4.15;;;3.75;;
10957;SDS011;5531;42.570;23.676;2023-04-29T01:05:12;5.50;;;4.10;;
10957;SDS011;5531;42.570;23.676;2023-04-29T01:07:50;4.35;;;3.50;;
10957;SDS011;5531;42.570;23.676;2023-04-29T01:10:26;4.40;;;3.60;;
10957;SDS011;5531;42.570;23.676;2023-04-29T01:13:04;3.88;;;3.40;;
10957;SDS011;5531;42.570;23.676;2023-04-29T01:15:38;4.40;;;3.72;;
10957;SDS011;5531;42.570;23.676;2023-04-29T01:18:14;7.53;;;4.03;;
10957;SDS011;5531;42.570;23.676;2023-04-29T01:20:48;4.30;;;3.90;;
10957;SDS011;5531;42.570;23.676;2023-04-29T01:23:18;4.05;;;3.67;;
10957;SDS011;5531;42.570;23.676;2023-04-29T01:25:50;4.85;;;3.85;;
10957;SDS011;5531;42.570;23.676;2023-04-29T01:31:17;4.13;;;3.47;;
10957;SDS011;5531;42.570;23.676;2023-04-29T01:33:51;8.65;;;4.90;;
10957;SDS011;5531;42.570;23.676;2023-04-29T01:36:29;5.22;;;4.13;;
10957;SDS011;5531;42.570;23.676;2023-04-29T01:39:06;4.95;;;4.25;;
10957;SDS011;5531;42.570;23.676;2023-04-29T01:41:44;6.07;;;4.55;;
10957;SDS011;5531;42.570;23.676;2023-04-29T01:44:26;5.32;;;4.72;;
10957;SDS011;5531;42.570;23.676;2023-04-29T01:46:57;5.20;;;4.07;;
10957;SDS011;5531;42.570;23.676;2023-04-29T01:49:28;5.13;;;4.15;;
10957;SDS011;5531;42.570;23.676;2023-04-29T01:51:57;5.10;;;4.22;;
10957;SDS011;5531;42.570;23.676;2023-04-29T01:54:26;5.47;;;4.40;;
10957;SDS011;5531;42.570;23.676;2023-04-29T01:56:58;5.55;;;4.60;;
10957;SDS011;5531;42.570;23.676;2023-04-29T01:59:27;7.57;;;4.53;;
10957;SDS011;5531;42.570;23.676;2023-04-29T02:01:56;5.55;;;4.85;;
10957;SDS011;5531;42.570;23.676;2023-04-29T02:04:24;5.97;;;4.60;;
10957;SDS011;5531;42.570;23.676;2023-04-29T02:06:53;6.65;;;4.97;;
10957;SDS011;5531;42.570;23.676;2023-04-29T02:09:22;6.90;;;4.95;;
10957;SDS011;5531;42.570;23.676;2023-04-29T02:11:51;5.70;;;4.80;;
10957;SDS011;5531;42.570;23.676;2023-04-29T02:14:23;6.35;;;4.90;;
10957;SDS011;5531;42.570;23.676;2023-04-29T02:16:52;5.85;;;5.22;;
10957;SDS011;5531;42.570;23.676;2023-04-29T02:19:20;6.80;;;5.13;;
10957;SDS011;5531;42.570;23.676;2023-04-29T02:21:49;7.95;;;5.45;;
10957;SDS011;5531;42.570;23.676;2023-04-29T02:24:18;5.72;;;5.13;;
10957;SDS011;5531;42.570;23.676;2023-04-29T02:26:47;7.93;;;5.57;;
10957;SDS011;5531;42.570;23.676;2023-04-29T02:29:16;7.32;;;5.78;;
10957;SDS011;5531;42.570;23.676;2023-04-29T02:31:47;7.22;;;5.32;;
10957;SDS011;5531;42.570;23.676;2023-04-29T02:34:16;6.47;;;5.53;;
10957;SDS011;5531;42.570;23.676;2023-04-29T02:36:45;6.18;;;5.57;;
10957;SDS011;5531;42.570;23.676;2023-04-29T02:39:14;6.28;;;5.68;;
10957;SDS011;5531;42.570;23.676;2023-04-29T02:41:44;6.20;;;5.53;;
10957;SDS011;5531;42.570;23.676;2023-04-29T02:44:13;7.30;;;6.18;;
10957;SDS011;5531;42.570;23.676;2023-04-29T02:46:42;6.20;;;5.60;;
10957;SDS011;5531;42.570;23.676;2023-04-29T02:49:14;7.65;;;6.15;;
10957;SDS011;5531;42.570;23.676;2023-04-29T02:51:43;6.40;;;5.68;;
10957;SDS011;5531;42.570;23.676;2023-04-29T02:54:14;6.70;;;5.57;;
10957;SDS011;5531;42.570;23.676;2023-04-29T02:56:43;7.65;;;6.07;;
10957;SDS011;5531;42.570;23.676;2023-04-29T02:59:12;8.02;;;5.95;;
10957;SDS011;5531;42.570;23.676;2023-04-29T03:01:41;6.88;;;6.20;;
10957;SDS011;5531;42.570;23.676;2023-04-29T03:04:10;7.70;;;5.90;;
10957;SDS011;5531;42.570;23.676;2023-04-29T03:06:41;7.80;;;5.53;;
10957;SDS011;5531;42.570;23.676;2023-04-29T03:09:10;7.75;;;5.97;;
10957;SDS011;5531;42.570;23.676;2023-04-29T03:11:40;7.03;;;5.95;;
10957;SDS011;5531;42.570;23.676;2023-04-29T03:14:09;6.72;;;5.88;;
10957;SDS011;5531;42.570;23.676;2023-04-29T03:16:38;7.88;;;5.72;;
10957;SDS011;5531;42.570;23.676;2023-04-29T03:19:07;6.85;;;6.15;;
10957;SDS011;5531;42.570;23.676;2023-04-29T03:21:36;7.82;;;5.72;;
10957;SDS011;5531;42.570;23.676;2023-04-29T03:24:07;8.88;;;6.03;;
10957;SDS011;5531;42.570;23.676;2023-04-29T03:26:36;7.70;;;6.70;;
10957;SDS011;5531;42.570;23.676;2023-04-29T03:29:07;6.85;;;5.88;;
10957;SDS011;5531;42.570;23.676;2023-04-29T03:31:36;7.47;;;6.18;;
10957;SDS011;5531;42.570;23.676;2023-04-29T03:34:05;6.55;;;5.90;;
10957;SDS011;5531;42.570;23.676;2023-04-29T03:36:34;8.43;;;6.65;;
10957;SDS011;5531;42.570;23.676;2023-04-29T03:39:03;9.60;;;6.05;;
10957;SDS011;5531;42.570;23.676;2023-04-29T03:41:35;6.95;;;6.25;;
10957;SDS011;5531;42.570;23.676;2023-04-29T03:44:04;8.20;;;5.53;;
10957;SDS011;5531;42.570;23.676;2023-04-29T03:46:33;7.25;;;5.85;;
10957;SDS011;5531;42.570;23.676;2023-04-29T03:49:02;6.18;;;5.40;;
10957;SDS011;5531;42.570;23.676;2023-04-29T03:51:31;5.93;;;5.32;;
10957;SDS011;5531;42.570;23.676;2023-04-29T03:54:00;6.07;;;5.00;;
10957;SDS011;5531;42.570;23.676;2023-04-29T03:56:29;5.45;;;4.82;;
10957;SDS011;5531;42.570;23.676;2023-04-29T03:59:01;7.70;;;5.28;;
10957;SDS011;5531;42.570;23.676;2023-04-29T04:01:30;8.88;;;4.90;;
10957;SDS011;5531;42.570;23.676;2023-04-29T04:03:59;6.10;;;4.80;;
10957;SDS011;5531;42.570;23.676;2023-04-29T04:06:28;6.03;;;4.75;;
10957;SDS011;5531;42.570;23.676;2023-04-29T04:08:56;6.95;;;5.50;;
10957;SDS011;5531;42.570;23.676;2023-04-29T04:11:25;5.85;;;4.80;;
10957;SDS011;5531;42.570;23.676;2023-04-29T04:13:54;5.30;;;4.80;;
10957;SDS011;5531;42.570;23.676;2023-04-29T04:16:26;7.38;;;4.90;;
10957;SDS011;5531;42.570;23.676;2023-04-29T04:18:55;6.25;;;4.55;;
10957;SDS011;5531;42.570;23.676;2023-04-29T04:21:24;7.65;;;5.53;;
10957;SDS011;5531;42.570;23.676;2023-04-29T04:23:54;5.72;;;5.10;;
10957;SDS011;5531;42.570;23.676;2023-04-29T04:26:23;7.63;;;5.05;;
10957;SDS011;5531;42.570;23.676;2023-04-29T04:28:52;6.60;;;4.82;;
10957;SDS011;5531;42.570;23.676;2023-04-29T04:31:21;6.10;;;5.03;;
10957;SDS011;5531;42.570;23.676;2023-04-29T04:33:52;6.85;;;4.82;;
10957;SDS011;5531;42.570;23.676;2023-04-29T04:36:22;6.13;;;5.20;;
10957;SDS011;5531;42.570;23.676;2023-04-29T04:38:50;6.65;;;4.85;;
10957;SDS011;5531;42.570;23.676;2023-04-29T04:41:20;5.97;;;4.78;;
10957;SDS011;5531;42.570;23.676;2023-04-29T04:43:48;7.22;;;5.18;;
10957;SDS011;5531;42.570;23.676;2023-04-29T04:46:17;5.47;;;4.97;;
10957;SDS011;5531;42.570;23.676;2023-04-29T04:48:46;5.88;;;5.05;;
10957;SDS011;5531;42.570;23.676;2023-04-29T04:51:18;6.18;;;4.68;;
10957;SDS011;5531;42.570;23.676;2023-04-29T04:53:47;5.65;;;4.70;;
10957;SDS011;5531;42.570;23.676;2023-04-29T04:56:16;5.70;;;4.50;;
10957;SDS011;5531;42.570;23.676;2023-04-29T04:58:45;5.43;;;4.57;;
10957;SDS011;5531;42.570;23.676;2023-04-29T05:01:14;4.82;;;4.32;;
10957;SDS011;5531;42.570;23.676;2023-04-29T05:03:43;4.78;;;4.32;;
10957;SDS011;5531;42.570;23.676;2023-04-29T05:06:12;5.70;;;4.28;;
10957;SDS011;5531;42.570;23.676;2023-04-29T05:08:44;4.88;;;4.20;;
10957;SDS011;5531;42.570;23.676;2023-04-29T05:11:15;4.50;;;3.67;;
10957;SDS011;5531;42.570;23.676;2023-04-29T05:13:45;5.38;;;3.67;;
10957;SDS011;5531;42.570;23.676;2023-04-29T05:16:14;4.72;;;4.03;;
10957;SDS011;5531;42.570;23.676;2023-04-29T05:18:44;6.68;;;3.90;;
10957;SDS011;5531;42.570;23.676;2023-04-29T05:21:13;4.70;;;4.05;;
10957;SDS011;5531;42.570;23.676;2023-04-29T05:23:45;3.88;;;3.42;;
10957;SDS011;5531;42.570;23.676;2023-04-29T05:26:14;4.70;;;3.75;;
10957;SDS011;5531;42.570;23.676;2023-04-29T05:28:43;5.45;;;4.00;;
10957;SDS011;5531;42.570;23.676;2023-04-29T05:31:12;5.10;;;4.25;;
10957;SDS011;5531;42.570;23.676;2023-04-29T05:33:40;5.85;;;4.82;;
10957;SDS011;5531;42.570;23.676;2023-04-29T05:36:09;4.43;;;4.03;;
10957;SDS011;5531;42.570;23.676;2023-04-29T05:38:38;6.25;;;4.00;;
10957;SDS011;5531;42.570;23.676;2023-04-29T05:41:12;5.05;;;3.92;;
10957;SDS011;5531;42.570;23.676;2023-04-29T05:43:41;5.22;;;3.90;;
10957;SDS011;5531;42.570;23.676;2023-04-29T05:46:10;3.92;;;3.60;;
10957;SDS011;5531;42.570;23.676;2023-04-29T05:48:39;4.38;;;3.97;;
10957;SDS011;5531;42.570;23.676;2023-04-29T05:51:07;3.90;;;3.17;;
10957;SDS011;5531;42.570;23.676;2023-04-29T05:53:36;5.15;;;3.40;;
10957;SDS011;5531;42.570;23.676;2023-04-29T05:56:05;3.67;;;2.83;;
10957;SDS011;5531;42.570;23.676;2023-04-29T05:58:37;4.13;;;3.40;;
10957;SDS011;5531;42.570;23.676;2023-04-29T06:01:06;4.28;;;3.03;;
10957;SDS011;5531;42.570;23.676;2023-04-29T06:03:35;5.65;;;3.13;;
10957;SDS011;5531;42.570;23.676;2023-04-29T06:06:05;3.78;;;3.05;;
10957;SDS011;5531;42.570;23.676;2023-04-29T06:08:34;3.03;;;2.72;;
10957;SDS011;5531;42.570;23.676;2023-04-29T06:11:04;3.47;;;2.88;;
10957;SDS011;5531;42.570;23.676;2023-04-29T06:13:33;3.22;;;2.75;;
10957;SDS011;5531;42.570;23.676;2023-04-29T06:16:04;4.10;;;2.97;;
10957;SDS011;5531;42.570;23.676;2023-04-29T06:18:34;3.42;;;2.70;;
10957;SDS011;5531;42.570;23.676;2023-04-29T06:21:03;4.32;;;2.65;;
10957;SDS011;5531;42.570;23.676;2023-04-29T06:23:32;4.38;;;2.33;;
10957;SDS011;5531;42.570;23.676;2023-04-29T06:26:01;3.22;;;2.75;;
10957;SDS011;5531;42.570;23.676;2023-04-29T06:28:31;2.50;;;2.30;;
10957;SDS011;5531;42.570;23.676;2023-04-29T06:31:00;2.58;;;2.38;;
10957;SDS011;5531;42.570;23.676;2023-04-29T06:33:31;3.20;;;2.40;;
10957;SDS011;5531;42.570;23.676;2023-04-29T06:36:00;3.63;;;2.65;;
10957;SDS011;5531;42.570;23.676;2023-04-29T06:38:29;3.08;;;2.78;;
10957;SDS011;5531;42.570;23.676;2023-04-29T06:40:58;2.92;;;2.63;;
10957;SDS011;5531;42.570;23.676;2023-04-29T06:43:28;3.08;;;2.70;;
10957;SDS011;5531;42.570;23.676;2023-04-29T06:45:57;3.83;;;2.72;;
10957;SDS011;5531;42.570;23.676;2023-04-29T06:48:27;3.65;;;2.70;;
10957;SDS011;5531;42.570;23.676;2023-04-29T06:50:58;6.38;;;5.85;;
10957;SDS011;5531;42.570;23.676;2023-04-29T06:53:28;4.80;;;3.40;;
10957;SDS011;5531;42.570;23.676;2023-04-29T06:55:57;3.17;;;2.88;;
10957;SDS011;5531;42.570;23.676;2023-04-29T06:58:26;4.93;;;2.90;;
10957;SDS011;5531;42.570;23.676;2023-04-29T07:00:55;3.75;;;3.08;;
10957;SDS011;5531;42.570;23.676;2023-04-29T07:03:24;4.90;;;3.10;;
10957;SDS011;5531;42.570;23.676;2023-04-29T07:05:53;3.85;;;3.08;;
10957;SDS011;5531;42.570;23.676;2023-04-29T07:08:24;3.25;;;2.80;;
10957;SDS011;5531;42.570;23.676;2023-04-29T07:10:53;3.42;;;2.70;;
10957;SDS011;5531;42.570;23.676;2023-04-29T07:13:23;5.47;;;4.90;;
10957;SDS011;5531;42.570;23.676;2023-04-29T07:15:53;3.40;;;2.70;;
10957;SDS011;5531;42.570;23.676;2023-04-29T07:18:22;3.33;;;2.40;;
10957;SDS011;5531;42.570;23.676;2023-04-29T07:20:51;5.25;;;3.55;;
10957;SDS011;5531;42.570;23.676;2023-04-29T07:23:20;3.97;;;2.63;;
10957;SDS011;5531;42.570;23.676;2023-04-29T07:25:52;4.03;;;3.00;;
10957;SDS011;5531;42.570;23.676;2023-04-29T07:28:20;4.05;;;2.75;;
10957;SDS011;5531;42.570;23.676;2023-04-29T07:30:50;4.68;;;2.83;;
10957;SDS011;5531;42.570;23.676;2023-04-29T07:33:19;4.25;;;2.70;;
10957;SDS011;5531;42.570;23.676;2023-04-29T07:35:48;3.63;;;2.45;;
10957;SDS011;5531;42.570;23.676;2023-04-29T07:38:17;3.65;;;2.88;;
10957;SDS011;5531;42.570;23.676;2023-04-29T07:40:46;4.45;;;2.40;;
10957;SDS011;5531;42.570;23.676;2023-04-29T07:43:17;3.33;;;2.35;;
10957;SDS011;5531;42.570;23.676;2023-04-29T07:45:46;3.05;;;2.40;;
10957;SDS011;5531;42.570;23.676;2023-04-29T07:48:15;2.28;;;2.05;;
10957;SDS011;5531;42.570;23.676;2023-04-29T07:50:45;3.15;;;1.95;;
10957;SDS011;5531;42.570;23.676;2023-04-29T07:53:15;3.25;;;1.92;;
10957;SDS011;5531;42.570;23.676;2023-04-29T07:55:44;2.90;;;1.95;;
10957;SDS011;5531;42.570;23.676;2023-04-29T07:58:13;1.98;;;1.80;;
10957;SDS011;5531;42.570;23.676;2023-04-29T08:00:44;3.42;;;2.13;;
10957;SDS011;5531;42.570;23.676;2023-04-29T08:03:14;2.45;;;2.00;;
10957;SDS011;5531;42.570;23.676;2023-04-29T08:05:43;2.97;;;2.47;;
10957;SDS011;5531;42.570;23.676;2023-04-29T08:08:12;2.80;;;2.00;;
10957;SDS011;5531;42.570;23.676;2023-04-29T08:10:41;3.13;;;2.00;;
10957;SDS011;5531;42.570;23.676;2023-04-29T08:13:10;3.13;;;1.80;;
10957;SDS011;5531;42.570;23.676;2023-04-29T08:15:40;2.28;;;2.00;;
10957;SDS011;5531;42.570;23.676;2023-04-29T08:18:12;3.55;;;2.13;;
10957;SDS011;5531;42.570;23.676;2023-04-29T08:20:41;2.95;;;2.03;;
10957;SDS011;5531;42.570;23.676;2023-04-29T08:23:10;2.78;;;1.90;;
10957;SDS011;5531;42.570;23.676;2023-04-29T08:25:40;3.08;;;2.00;;
10957;SDS011;5531;42.570;23.676;2023-04-29T08:28:09;3.65;;;2.55;;
10957;SDS011;5531;42.570;23.676;2023-04-29T08:30:39;2.28;;;1.80;;
10957;SDS011;5531;42.570;23.676;2023-04-29T08:33:08;2.22;;;1.90;;
10957;SDS011;5531;42.570;23.676;2023-04-29T08:35:40;2.20;;;1.80;;
10957;SDS011;5531;42.570;23.676;2023-04-29T08:38:09;2.53;;;2.00;;
10957;SDS011;5531;42.570;23.676;2023-04-29T08:40:40;2.67;;;2.05;;
10957;SDS011;5531;42.570;23.676;2023-04-29T08:43:11;3.42;;;1.88;;
10957;SDS011;5531;42.570;23.676;2023-04-29T08:45:41;2.72;;;2.08;;
10957;SDS011;5531;42.570;23.676;2023-04-29T08:48:11;2.45;;;2.03;;
10957;SDS011;5531;42.570;23.676;2023-04-29T08:50:43;1.95;;;1.70;;
10957;SDS011;5531;42.570;23.676;2023-04-29T08:53:13;3.00;;;2.05;;
10957;SDS011;5531;42.570;23.676;2023-04-29T08:55:43;2.17;;;1.95;;
10957;SDS011;5531;42.570;23.676;2023-04-29T08:58:13;2.00;;;1.70;;
10957;SDS011;5531;42.570;23.676;2023-04-29T09:00:43;1.77;;;1.60;;
10957;SDS011;5531;42.570;23.676;2023-04-29T09:03:14;2.08;;;1.85;;
10957;SDS011;5531;42.570;23.676;2023-04-29T09:05:51;1.77;;;1.27;;
10957;SDS011;5531;42.570;23.676;2023-04-29T09:08:22;2.00;;;1.80;;
10957;SDS011;5531;42.570;23.676;2023-04-29T09:10:52;1.90;;;1.60;;
10957;SDS011;5531;42.570;23.676;2023-04-29T09:13:25;1.88;;;1.60;;
10957;SDS011;5531;42.570;23.676;2023-04-29T09:19:09;2.85;;;1.90;;
10957;SDS011;5531;42.570;23.676;2023-04-29T09:21:41;2.25;;;1.92;;
10957;SDS011;5531;42.570;23.676;2023-04-29T09:24:23;2.90;;;2.03;;
10957;SDS011;5531;42.570;23.676;2023-04-29T09:26:54;2.33;;;1.92;;
10957;SDS011;5531;42.570;23.676;2023-04-29T09:29:24;3.70;;;1.65;;
10957;SDS011;5531;42.570;23.676;2023-04-29T09:32:15;2.00;;;1.80;;
10957;SDS011;5531;42.570;23.676;2023-04-29T09:34:48;2.13;;;1.92;;
10957;SDS011;5531;42.570;23.676;2023-04-29T09:37:25;2.20;;;1.80;;
10957;SDS011;5531;42.570;23.676;2023-04-29T09:39:55;2.20;;;1.77;;
10957;SDS011;5531;42.570;23.676;2023-04-29T09:42:24;2.67;;;1.70;;
10957;SDS011;5531;42.570;23.676;2023-04-29T09:44:54;2.55;;;1.60;;
10957;SDS011;5531;42.570;23.676;2023-04-29T09:47:28;1.80;;;1.45;;
10957;SDS011;5531;42.570;23.676;2023-04-29T09:50:09;3.58;;;1.60;;
10957;SDS011;5531;42.570;23.676;2023-04-29T09:52:43;2.35;;;1.80;;
10957;SDS011;5531;42.570;23.676;2023-04-29T09:55:12;2.08;;;1.85;;
10957;SDS011;5531;42.570;23.676;2023-04-29T09:57:42;1.67;;;1.48;;
10957;SDS011;5531;42.570;23.676;2023-04-29T10:00:11;1.70;;;1.60;;
10957;SDS011;5531;42.570;23.676;2023-04-29T10:02:41;2.05;;;1.60;;
10957;SDS011;5531;42.570;23.676;2023-04-29T10:05:14;2.38;;;1.63;;
10957;SDS011;5531;42.570;23.676;2023-04-29T10:07:46;2.90;;;1.65;;
10957;SDS011;5531;42.570;23.676;2023-04-29T10:10:15;2.28;;;1.70;;
10957;SDS011;5531;42.570;23.676;2023-04-29T10:12:46;2.22;;;1.88;;
10957;SDS011;5531;42.570;23.676;2023-04-29T10:15:17;2.47;;;1.70;;
10957;SDS011;5531;42.570;23.676;2023-04-29T10:17:51;2.58;;;1.83;;
10957;SDS011;5531;42.570;23.676;2023-04-29T10:20:26;1.85;;;1.70;;
10957;SDS011;5531;42.570;23.676;2023-04-29T10:22:59;1.95;;;1.73;;
10957;SDS011;5531;42.570;23.676;2023-04-29T10:25:30;2.22;;;1.70;;
10957;SDS011;5531;42.570;23.676;2023-04-29T10:28:00;1.88;;;1.50;;
10957;SDS011;5531;42.570;23.676;2023-04-29T10:30:31;2.22;;;1.60;;
10957;SDS011;5531;42.570;23.676;2023-04-29T10:33:01;2.10;;;1.80;;
10957;SDS011;5531;42.570;23.676;2023-04-29T10:35:33;1.73;;;1.60;;
10957;SDS011;5531;42.570;23.676;2023-04-29T10:38:07;2.50;;;1.95;;
10957;SDS011;5531;42.570;23.676;2023-04-29T10:40:43;1.50;;;1.40;;
10957;SDS011;5531;42.570;23.676;2023-04-29T10:43:13;1.67;;;1.40;;
10957;SDS011;5531;42.570;23.676;2023-04-29T10:45:43;2.60;;;1.60;;
10957;SDS011;5531;42.570;23.676;2023-04-29T10:48:13;1.58;;;1.48;;
10957;SDS011;5531;42.570;23.676;2023-04-29T10:53:30;2.47;;;1.50;;
10957;SDS011;5531;42.570;23.676;2023-04-29T10:56:03;1.90;;;1.55;;
10957;SDS011;5531;42.570;23.676;2023-04-29T10:58:42;2.55;;;1.48;;
10957;SDS011;5531;42.570;23.676;2023-04-29T11:01:14;4.03;;;1.60;;
10957;SDS011;5531;42.570;23.676;2023-04-29T11:03:44;1.58;;;1.45;;
10957;SDS011;5531;42.570;23.676;2023-04-29T11:06:19;1.40;;;1.30;;
10957;SDS011;5531;42.570;23.676;2023-04-29T11:09:01;2.30;;;2.10;;
10957;SDS011;5531;42.570;23.676;2023-04-29T11:11:48;2.45;;;1.70;;
10957;SDS011;5531;42.570;23.676;2023-04-29T11:14:26;2.05;;;1.80;;
10957;SDS011;5531;42.570;23.676;2023-04-29T11:16:58;2.15;;;1.95;;
10957;SDS011;5531;42.570;23.676;2023-04-29T11:19:32;2.17;;;1.50;;
10957;SDS011;5531;42.570;23.676;2023-04-29T11:22:12;2.10;;;1.85;;
10957;SDS011;5531;42.570;23.676;2023-04-29T11:24:58;3.35;;;1.80;;
10957;SDS011;5531;42.570;23.676;2023-04-29T11:27:29;2.30;;;1.40;;
10957;SDS011;5531;42.570;23.676;2023-04-29T11:30:00;1.73;;;1.45;;
10957;SDS011;5531;42.570;23.676;2023-04-29T11:32:31;2.05;;;1.48;;
10957;SDS011;5531;42.570;23.676;2023-04-29T11:35:09;2.60;;;1.50;;
10957;SDS011;5531;42.570;23.676;2023-04-29T11:37:39;2.00;;;1.60;;
10957;SDS011;5531;42.570;23.676;2023-04-29T11:40:12;3.25;;;1.80;;
10957;SDS011;5531;42.570;23.676;2023-04-29T11:42:42;2.20;;;1.70;;
10957;SDS011;5531;42.570;23.676;2023-04-29T11:45:12;2.15;;;1.73;;
10957;SDS011;5531;42.570;23.676;2023-04-29T11:47:42;4.40;;;1.70;;
10957;SDS011;5531;42.570;23.676;2023-04-29T11:50:13;2.20;;;1.70;;
10957;SDS011;5531;42.570;23.676;2023-04-29T11:52:45;2.42;;;1.73;;
10957;SDS011;5531;42.570;23.676;2023-04-29T11:55:17;2.22;;;1.58;;
10957;SDS011;5531;42.570;23.676;2023-04-29T11:57:48;1.80;;;1.70;;
10957;SDS011;5531;42.570;23.676;2023-04-29T12:00:17;4.43;;;1.98;;
10957;SDS011;5531;42.570;23.676;2023-04-29T12:02:46;3.00;;;1.92;;
10957;SDS011;5531;42.570;23.676;2023-04-29T12:05:15;3.50;;;2.10;;
10957;SDS011;5531;42.570;23.676;2023-04-29T12:07:44;3.67;;;2.08;;
10957;SDS011;5531;42.570;23.676;2023-04-29T12:10:13;4.03;;;2.13;;
10957;SDS011;5531;42.570;23.676;2023-04-29T12:12:45;3.85;;;1.80;;
10957;SDS011;5531;42.570;23.676;2023-04-29T12:15:15;3.25;;;1.90;;
10957;SDS011;5531;42.570;23.676;2023-04-29T12:17:44;2.10;;;1.90;;
10957;SDS011;5531;42.570;23.676;2023-04-29T12:20:14;2.05;;;1.85;;
10957;SDS011;5531;42.570;23.676;2023-04-29T12:22:43;2.40;;;1.95;;
10957;SDS011;5531;42.570;23.676;2023-04-29T12:25:14;3.00;;;2.10;;
10957;SDS011;5531;42.570;23.676;2023-04-29T12:27:46;2.17;;;1.80;;
10957;SDS011;5531;42.570;23.676;2023-04-29T12:30:16;3.42;;;2.00;;
10957;SDS011;5531;42.570;23.676;2023-04-29T12:32:45;2.17;;;1.98;;
10957;SDS011;5531;42.570;23.676;2023-04-29T12:35:15;1.90;;;1.73;;
10957;SDS011;5531;42.570;23.676;2023-04-29T12:37:47;4.07;;;2.00;;
10957;SDS011;5531;42.570;23.676;2023-04-29T12:40:19;2.90;;;1.83;;
10957;SDS011;5531;42.570;23.676;2023-04-29T12:42:49;2.05;;;1.83;;
10957;SDS011;5531;42.570;23.676;2023-04-29T12:45:25;2.10;;;1.90;;
10957;SDS011;5531;42.570;23.676;2023-04-29T12:47:55;2.83;;;1.98;;
10957;SDS011;5531;42.570;23.676;2023-04-29T12:50:29;2.72;;;1.92;;
10957;SDS011;5531;42.570;23.676;2023-04-29T12:53:00;2.22;;;2.00;;
10957;SDS011;5531;42.570;23.676;2023-04-29T12:55:34;3.05;;;1.90;;
10957;SDS011;5531;42.570;23.676;2023-04-29T12:58:04;2.03;;;1.77;;
10957;SDS011;5531;42.570;23.676;2023-04-29T13:00:34;2.17;;;2.00;;
10957;SDS011;5531;42.570;23.676;2023-04-29T13:03:03;2.55;;;1.90;;
10957;SDS011;5531;42.570;23.676;2023-04-29T13:05:32;3.38;;;2.15;;
10957;SDS011;5531;42.570;23.676;2023-04-29T13:08:02;1.75;;;1.52;;
10957;SDS011;5531;42.570;23.676;2023-04-29T13:10:35;2.10;;;1.73;;
10957;SDS011;5531;42.570;23.676;2023-04-29T13:13:04;2.30;;;1.65;;
10957;SDS011;5531;42.570;23.676;2023-04-29T13:15:34;2.58;;;1.90;;
10957;SDS011;5531;42.570;23.676;2023-04-29T13:18:03;1.65;;;1.55;;
10957;SDS011;5531;42.570;23.676;2023-04-29T13:20:32;1.70;;;1.60;;
10957;SDS011;5531;42.570;23.676;2023-04-29T13:23:02;2.55;;;1.67;;
10957;SDS011;5531;42.570;23.676;2023-04-29T13:25:31;3.58;;;1.60;;
10957;SDS011;5531;42.570;23.676;2023-04-29T13:28:02;1.70;;;1.50;;
10957;SDS011;5531;42.570;23.676;2023-04-29T13:30:32;2.78;;;1.55;;
10957;SDS011;5531;42.570;23.676;2023-04-29T13:33:01;2.08;;;1.60;;
10957;SDS011;5531;42.570;23.676;2023-04-29T13:35:30;2.92;;;1.60;;
10957;SDS011;5531;42.570;23.676;2023-04-29T13:38:00;2.53;;;1.70;;
10957;SDS011;5531;42.570;23.676;2023-04-29T13:40:29;2.13;;;1.65;;
10957;SDS011;5531;42.570;23.676;2023-04-29T13:42:58;2.05;;;1.52;;
10957;SDS011;5531;42.570;23.676;2023-04-29T13:45:30;2.05;;;1.63;;
10957;SDS011;5531;42.570;23.676;2023-04-29T13:48:00;2.55;;;1.80;;
10957;SDS011;5531;42.570;23.676;2023-04-29T13:50:29;1.83;;;1.73;;
10957;SDS011;5531;42.570;23.676;2023-04-29T13:52:58;2.20;;;1.73;;
10957;SDS011;5531;42.570;23.676;2023-04-29T13:55:28;3.22;;;1.90;;
10957;SDS011;5531;42.570;23.676;2023-04-29T13:58:01;3.13;;;1.90;;
10957;SDS011;5531;42.570;23.676;2023-04-29T14:00:32;2.42;;;1.80;;
10957;SDS011;5531;42.570;23.676;2023-04-29T14:03:03;2.95;;;1.92;;
10957;SDS011;5531;42.570;23.676;2023-04-29T14:05:32;2.58;;;1.83;;
10957;SDS011;5531;42.570;23.676;2023-04-29T14:08:03;2.50;;;1.90;;
10957;SDS011;5531;42.570;23.676;2023-04-29T14:10:32;3.72;;;2.00;;
10957;SDS011;5531;42.570;23.676;2023-04-29T14:13:01;3.45;;;1.70;;
10957;SDS011;5531;42.570;23.676;2023-04-29T14:15:33;2.25;;;1.90;;
10957;SDS011;5531;42.570;23.676;2023-04-29T14:18:02;2.65;;;1.88;;
10957;SDS011;5531;42.570;23.676;2023-04-29T14:20:32;3.57;;;2.30;;
10957;SDS011;5531;42.570;23.676;2023-04-29T14:23:01;1.88;;;1.77;;
10957;SDS011;5531;42.570;23.676;2023-04-29T14:25:30;2.97;;;2.00;;
10957;SDS011;5531;42.570;23.676;2023-04-29T14:27:59;4.28;;;2.20;;
10957;SDS011;5531;42.570;23.676;2023-04-29T14:30:29;3.45;;;2.17;;
10957;SDS011;5531;42.570;23.676;2023-04-29T14:33:00;2.33;;;1.83;;
10957;SDS011;5531;42.570;23.676;2023-04-29T14:35:29;2.13;;;1.90;;
10957;SDS011;5531;42.570;23.676;2023-04-29T14:37:58;4.13;;;1.80;;
10957;SDS011;5531;42.570;23.676;2023-04-29T14:40:28;2.53;;;1.80;;
10957;SDS011;5531;42.570;23.676;2023-04-29T14:42:57;3.35;;;1.90;;
10957;SDS011;5531;42.570;23.676;2023-04-29T14:45:26;2.83;;;1.95;;
10957;SDS011;5531;42.570;23.676;2023-04-29T14:47:55;2.30;;;1.80;;
10957;SDS011;5531;42.570;23.676;2023-04-29T14:50:27;3.35;;;1.83;;
10957;SDS011;5531;42.570;23.676;2023-04-29T14:52:56;2.05;;;1.80;;
10957;SDS011;5531;42.570;23.676;2023-04-29T14:55:25;2.65;;;1.90;;
10957;SDS011;5531;42.570;23.676;2023-04-29T14:57:54;2.15;;;1.70;;
10957;SDS011;5531;42.570;23.676;2023-04-29T15:00:23;2.55;;;1.98;;
10957;SDS011;5531;42.570;23.676;2023-04-29T15:02:53;2.30;;;1.90;;
10957;SDS011;5531;42.570;23.676;2023-04-29T15:05:22;2.80;;;1.70;;
10957;SDS011;5531;42.570;23.676;2023-04-29T15:07:53;1.88;;;1.63;;
10957;SDS011;5531;42.570;23.676;2023-04-29T15:10:24;2.85;;;1.90;;
10957;SDS011;5531;42.570;23.676;2023-04-29T15:12:53;4.05;;;2.13;;
10957;SDS011;5531;42.570;23.676;2023-04-29T15:15:23;2.58;;;2.03;;